Time;durP1;ratioP1;P1;durP2;ratioP2;P2;SDS_P1;SDS_P2;PMS_P1;PMS_P2;Temp;Humidity;BMP_temperature;BMP_pressure;BME280_temperature;BME280_humidity;BME280_pressure;Samples;Min_cycle;Max_cycle;Signal;HPM_P1;HPM_P2
2020/12/30 00:00:56;;;;;;;3.22;1.10;;;8.30;67.50;;;;;;2466745;55;21588;-71
2020/12/30 00:03:23;;;;;;;3.75;1.15;;;8.30;67.60;;;;;;2488570;55;21757;-71
2020/12/30 00:05:49;;;;;;;3.20;1.10;;;8.30;67.70;;;;;;2262455;55;21048;-72
2020/12/30 00:08:16;;;;;;;4.43;1.20;;;8.20;67.50;;;;;;2488230;55;21050;-70
2020/12/30 00:10:43;;;;;;;3.80;1.20;;;8.20;67.80;;;;;;2261960;56;21106;-71
2020/12/30 00:13:10;;;;;;;3.35;1.30;;;8.20;67.80;;;;;;2257278;55;22031;-71
2020/12/30 00:15:39;;;;;;;3.08;1.17;;;8.20;67.90;;;;;;2463555;55;20975;-71
2020/12/30 00:18:06;;;;;;;6.60;1.60;;;8.20;67.90;;;;;;2470436;55;21001;-71
2020/12/30 00:20:32;;;;;;;5.90;2.10;;;8.30;68.10;;;;;;2261500;55;21055;-71
2020/12/30 00:22:59;;;;;;;4.53;1.80;;;8.20;68.00;;;;;;2486185;55;20977;-71
2020/12/30 00:25:27;;;;;;;5.55;1.95;;;8.20;67.90;;;;;;2264346;55;21895;-71
2020/12/30 00:27:54;;;;;;;4.18;1.37;;;8.20;67.90;;;;;;2488753;55;21556;-71
2020/12/30 00:30:20;;;;;;;4.28;1.33;;;8.20;67.90;;;;;;2481298;55;21024;-71
2020/12/30 00:32:48;;;;;;;4.87;1.45;;;8.20;67.90;;;;;;2255260;56;20992;-71
2020/12/30 00:35:15;;;;;;;3.92;1.10;;;8.20;67.90;;;;;;2488738;55;20982;-71
2020/12/30 00:37:43;;;;;;;4.45;1.45;;;8.20;67.90;;;;;;2481636;55;20964;-71
2020/12/30 00:40:10;;;;;;;7.05;2.70;;;8.20;67.90;;;;;;2487371;55;20972;-71
2020/12/30 00:42:38;;;;;;;7.35;2.62;;;8.20;67.80;;;;;;2487459;55;21061;-72
2020/12/30 00:45:05;;;;;;;7.78;2.53;;;8.20;67.70;;;;;;2259135;56;21020;-71
2020/12/30 00:47:32;;;;;;;6.78;2.40;;;8.10;67.60;;;;;;2257555;56;21039;-71
2020/12/30 00:49:58;;;;;;;4.85;1.83;;;8.10;67.60;;;;;;2263270;56;20977;-71
2020/12/30 00:52:26;;;;;;;5.10;1.25;;;8.10;67.60;;;;;;2473325;55;21037;-71
2020/12/30 00:54:53;;;;;;;4.68;2.08;;;8.10;67.50;;;;;;2484064;55;21091;-71
2020/12/30 00:57:21;;;;;;;5.43;1.90;;;8.10;67.50;;;;;;2487748;55;21017;-71
2020/12/30 00:59:49;;;;;;;7.20;2.40;;;8.00;67.40;;;;;;2241703;56;20957;-71
2020/12/30 01:02:15;;;;;;;7.00;2.42;;;8.00;67.40;;;;;;2487795;55;20984;-70
2020/12/30 01:04:42;;;;;;;5.15;1.65;;;8.00;67.30;;;;;;2260133;55;20917;-71
2020/12/30 01:07:09;;;;;;;6.32;1.90;;;7.90;67.30;;;;;;2483890;55;20982;-71
2020/12/30 01:09:35;;;;;;;6.32;1.98;;;7.90;67.30;;;;;;2481768;55;21036;-71
2020/12/30 01:12:03;;;;;;;4.68;1.67;;;7.90;67.40;;;;;;2259639;56;21452;-71
2020/12/30 01:14:29;;;;;;;4.25;1.50;;;7.90;67.50;;;;;;2490566;55;21391;-71
2020/12/30 01:16:56;;;;;;;4.50;1.62;;;7.80;67.40;;;;;;2262771;59;21926;-71
2020/12/30 01:19:23;;;;;;;3.25;1.30;;;7.80;67.50;;;;;;2255656;59;22005;-71
2020/12/30 01:21:49;;;;;;;4.97;1.30;;;7.80;67.50;;;;;;2462162;55;20945;-71
2020/12/30 01:24:17;;;;;;;4.35;1.27;;;7.80;67.60;;;;;;2260116;56;21525;-70
2020/12/30 01:26:44;;;;;;;2.37;0.98;;;7.70;67.50;;;;;;2259764;56;20988;-71
2020/12/30 01:29:10;;;;;;;2.72;0.88;;;7.70;67.60;;;;;;2266254;55;21505;-71
2020/12/30 01:31:37;;;;;;;3.08;1.00;;;7.70;67.60;;;;;;2480734;55;20992;-71
2020/12/30 01:34:05;;;;;;;2.87;0.80;;;7.70;67.80;;;;;;2487574;55;21794;-71
2020/12/30 01:36:32;;;;;;;2.42;0.90;;;7.70;67.80;;;;;;2488102;55;20992;-71
2020/12/30 01:38:59;;;;;;;4.40;1.37;;;7.60;67.80;;;;;;2489698;55;21052;-71
2020/12/30 01:41:26;;;;;;;3.70;1.58;;;7.60;68.50;;;;;;2253627;56;21356;-71
2020/12/30 01:44:05;;;;;;;3.45;1.20;;;7.60;67.90;;;;;;2462036;55;20933;-71
2020/12/30 01:46:49;;;;;;;5.15;1.87;;;7.60;67.90;;;;;;2483122;55;21517;-70
2020/12/30 01:49:22;;;;;;;3.78;1.40;;;7.60;68.00;;;;;;2253635;55;21011;-71
2020/12/30 01:51:51;;;;;;;4.87;1.37;;;7.60;68.30;;;;;;2483319;55;20961;-71
2020/12/30 01:54:17;;;;;;;3.72;1.33;;;7.60;68.50;;;;;;2483798;55;21005;-70
2020/12/30 01:56:45;;;;;;;3.92;1.27;;;7.60;68.60;;;;;;2240120;55;21192;-70
2020/12/30 01:59:17;;;;;;;3.35;1.00;;;7.60;68.70;;;;;;2482585;55;21005;-70
2020/12/30 02:01:47;;;;;;;3.27;0.93;;;7.70;68.90;;;;;;2259423;55;21060;-71
2020/12/30 02:04:16;;;;;;;3.67;0.98;;;7.70;68.90;;;;;;2475031;55;21035;-71
2020/12/30 02:06:42;;;;;;;4.00;1.20;;;7.70;68.90;;;;;;2251816;56;21065;-71
2020/12/30 02:09:10;;;;;;;2.60;1.05;;;7.70;68.60;;;;;;2483194;55;20956;-70
2020/12/30 02:11:36;;;;;;;3.00;1.02;;;7.80;68.40;;;;;;2257810;55;20989;-71
2020/12/30 02:14:11;;;;;;;2.47;0.82;;;7.80;68.40;;;;;;2460384;55;21047;-71
2020/12/30 02:16:51;;;;;;;3.00;1.20;;;7.80;69.00;;;;;;2262308;55;21120;-71
2020/12/30 02:19:18;;;;;;;2.67;1.00;;;7.80;67.70;;;;;;2473526;55;20989;-71
2020/12/30 02:21:45;;;;;;;4.30;1.40;;;7.80;68.00;;;;;;2484980;55;21414;-71
2020/12/30 02:24:15;;;;;;;4.07;1.27;;;7.80;67.90;;;;;;2480057;55;21953;-70
2020/12/30 02:26:41;;;;;;;4.45;1.08;;;7.80;67.70;;;;;;2246845;56;20977;-70
2020/12/30 02:29:08;;;;;;;4.20;1.15;;;7.70;67.50;;;;;;2487602;55;21012;-71
2020/12/30 02:31:35;;;;;;;4.30;1.10;;;7.70;67.30;;;;;;2259279;56;21020;-71
2020/12/30 02:34:02;;;;;;;2.53;1.00;;;7.70;67.20;;;;;;2488998;55;21530;-71
2020/12/30 02:36:29;;;;;;;3.33;1.00;;;7.70;67.30;;;;;;2260002;56;20964;-71
2020/12/30 02:38:56;;;;;;;4.12;1.35;;;7.70;67.10;;;;;;2259170;56;20960;-70
2020/12/30 02:41:23;;;;;;;3.30;1.25;;;7.60;67.70;;;;;;2488382;55;21052;-70
2020/12/30 02:43:50;;;;;;;2.58;1.08;;;7.60;67.20;;;;;;2488978;55;21001;-70
2020/12/30 02:46:16;;;;;;;3.10;1.10;;;7.60;67.20;;;;;;2259541;56;20980;-70
2020/12/30 02:48:43;;;;;;;4.05;1.25;;;7.60;67.20;;;;;;2263372;55;21064;-70
2020/12/30 02:51:10;;;;;;;2.55;0.95;;;7.60;67.40;;;;;;2487763;55;20972;-70
2020/12/30 02:53:37;;;;;;;2.72;0.82;;;7.50;67.30;;;;;;2488804;55;21053;-71
2020/12/30 02:56:03;;;;;;;5.50;1.48;;;7.50;67.30;;;;;;2243979;56;20992;-70
2020/12/30 02:58:30;;;;;;;2.90;1.10;;;7.50;67.00;;;;;;2259636;55;20984;-70
2020/12/30 03:00:56;;;;;;;2.08;1.00;;;7.50;67.20;;;;;;2488649;55;21025;-71
2020/12/30 03:03:25;;;;;;;5.40;1.10;;;7.50;67.40;;;;;;2481992;55;20933;-70
2020/12/30 03:05:53;;;;;;;3.20;1.05;;;7.50;67.40;;;;;;2264041;56;21056;-71
2020/12/30 03:08:23;;;;;;;2.12;0.80;;;7.50;67.50;;;;;;2488269;55;21008;-71
2020/12/30 03:10:49;;;;;;;3.55;1.10;;;7.50;67.70;;;;;;2267916;55;21565;-71
2020/12/30 03:13:16;;;;;;;3.53;1.40;;;7.50;67.70;;;;;;2255335;56;20933;-71
2020/12/30 03:15:46;;;;;;;5.28;1.00;;;7.50;67.70;;;;;;2262426;56;21031;-70
2020/12/30 03:18:12;;;;;;;3.28;1.00;;;7.50;67.70;;;;;;2488918;55;20949;-70
2020/12/30 03:20:38;;;;;;;3.55;0.95;;;7.50;67.90;;;;;;2260330;56;20972;-70
2020/12/30 03:23:05;;;;;;;2.60;1.08;;;7.50;67.80;;;;;;2489103;55;20937;-71
2020/12/30 03:25:32;;;;;;;3.90;0.90;;;7.50;67.90;;;;;;2489301;55;22079;-70
2020/12/30 03:27:59;;;;;;;2.97;1.00;;;7.50;68.00;;;;;;2488808;55;20968;-71
2020/12/30 03:30:25;;;;;;;3.25;0.90;;;7.50;68.00;;;;;;2488038;55;20952;-70
2020/12/30 03:32:51;;;;;;;3.08;1.08;;;7.50;68.10;;;;;;2264550;55;21627;-70
2020/12/30 03:35:18;;;;;;;3.20;1.00;;;7.50;68.10;;;;;;2259867;55;21472;-71
2020/12/30 03:37:45;;;;;;;2.95;0.90;;;7.50;68.00;;;;;;2489244;55;20972;-71
2020/12/30 03:40:11;;;;;;;3.37;0.77;;;7.60;68.30;;;;;;2487782;55;21565;-71
2020/12/30 03:42:38;;;;;;;2.50;0.90;;;7.60;68.20;;;;;;2488717;55;21040;-71
2020/12/30 03:45:05;;;;;;;2.97;1.02;;;7.60;68.00;;;;;;2270919;55;21079;-70
2020/12/30 03:47:32;;;;;;;2.35;0.60;;;7.60;67.90;;;;;;2469814;55;21642;-71
2020/12/30 03:49:58;;;;;;;4.12;0.98;;;7.60;68.00;;;;;;2258759;56;21008;-70
2020/12/30 03:52:25;;;;;;;2.30;0.82;;;7.60;68.10;;;;;;2489382;55;20984;-71
2020/12/30 03:54:51;;;;;;;3.35;0.80;;;7.60;68.10;;;;;;2480975;55;21494;-71
2020/12/30 03:57:19;;;;;;;1.67;0.52;;;7.60;68.90;;;;;;2475843;55;21105;-71
2020/12/30 03:59:46;;;;;;;2.35;0.70;;;7.60;68.00;;;;;;2260087;56;20988;-71
2020/12/30 04:02:12;;;;;;;1.55;0.65;;;7.70;68.10;;;;;;2260045;56;22108;-70
2020/12/30 04:04:39;;;;;;;1.65;0.60;;;7.70;68.10;;;;;;2488740;55;20998;-70
2020/12/30 04:07:05;;;;;;;1.77;0.65;;;7.70;68.20;;;;;;2254050;56;21589;-71
2020/12/30 04:09:32;;;;;;;2.83;0.70;;;7.70;68.20;;;;;;2488106;55;21013;-71
2020/12/30 04:11:59;;;;;;;2.22;0.75;;;7.70;68.20;;;;;;2259794;56;21554;-70
2020/12/30 04:14:27;;;;;;;2.87;0.70;;;7.70;68.10;;;;;;2263296;55;21044;-70
2020/12/30 04:16:55;;;;;;;3.92;0.73;;;7.70;68.10;;;;;;2264044;55;21000;-70
2020/12/30 04:19:21;;;;;;;2.47;0.77;;;7.70;67.90;;;;;;2487699;55;21029;-71
2020/12/30 04:21:48;;;;;;;1.60;0.52;;;7.70;67.80;;;;;;2257758;55;21051;-71
2020/12/30 04:24:16;;;;;;;2.20;0.75;;;7.80;67.70;;;;;;2250479;55;21004;-71
2020/12/30 04:26:43;;;;;;;1.60;0.40;;;7.70;67.60;;;;;;2488069;55;21538;-71
2020/12/30 04:29:09;;;;;;;1.65;0.60;;;7.70;67.60;;;;;;2489341;55;20966;-71
2020/12/30 04:31:36;;;;;;;1.10;0.50;;;7.70;67.70;;;;;;2256028;56;21023;-70
2020/12/30 04:34:06;;;;;;;3.05;0.60;;;7.70;67.60;;;;;;2488922;55;21553;-71
2020/12/30 04:36:37;;;;;;;1.35;0.50;;;7.70;67.70;;;;;;2487728;55;21608;-70
2020/12/30 04:39:04;;;;;;;2.60;0.70;;;7.70;67.80;;;;;;2263031;55;21051;-71
2020/12/30 04:41:32;;;;;;;2.55;0.60;;;7.70;67.80;;;;;;2487635;55;21588;-70
2020/12/30 04:44:00;;;;;;;2.60;0.70;;;7.60;67.70;;;;;;2488363;55;21004;-71
2020/12/30 04:46:27;;;;;;;1.85;0.60;;;7.60;67.80;;;;;;2263304;56;21477;-70
2020/12/30 04:48:54;;;;;;;1.92;0.65;;;7.60;67.80;;;;;;2486931;55;21629;-71
2020/12/30 04:51:20;;;;;;;1.80;0.60;;;7.60;67.90;;;;;;2259777;56;21001;-70
2020/12/30 04:53:48;;;;;;;1.20;0.50;;;7.60;67.90;;;;;;2489806;55;20984;-70
2020/12/30 04:56:15;;;;;;;1.52;0.62;;;7.60;67.80;;;;;;2478033;55;21532;-70
2020/12/30 04:58:42;;;;;;;1.73;0.55;;;7.60;67.80;;;;;;2480962;55;21776;-70
2020/12/30 05:01:10;;;;;;;3.37;0.90;;;7.60;67.80;;;;;;2488432;55;21489;-70
2020/12/30 05:03:46;;;;;;;2.20;0.50;;;7.50;67.70;;;;;;2485639;55;21038;-70
2020/12/30 05:06:14;;;;;;;3.37;0.60;;;7.50;67.60;;;;;;2254694;55;21035;-70
2020/12/30 05:08:41;;;;;;;3.17;0.70;;;7.50;67.60;;;;;;2263583;55;21477;-71
2020/12/30 05:11:10;;;;;;;1.52;0.50;;;7.50;67.60;;;;;;2259547;56;21496;-70
2020/12/30 05:13:36;;;;;;;0.93;0.40;;;7.50;67.60;;;;;;2260945;56;20967;-70
2020/12/30 05:16:05;;;;;;;1.45;0.50;;;7.40;67.50;;;;;;2265549;55;20997;-69
2020/12/30 05:18:31;;;;;;;3.33;0.70;;;7.40;67.50;;;;;;2484089;55;21708;-69
2020/12/30 05:20:58;;;;;;;1.70;0.60;;;7.40;67.40;;;;;;2487107;55;21036;-69
2020/12/30 05:23:25;;;;;;;2.95;0.60;;;7.30;67.30;;;;;;2488968;55;20997;-69
2020/12/30 05:25:53;;;;;;;1.12;0.52;;;7.30;67.30;;;;;;2260021;56;21642;-69
2020/12/30 05:28:22;;;;;;;2.45;0.90;;;7.30;67.30;;;;;;2263407;55;21075;-69
2020/12/30 05:30:48;;;;;;;3.08;1.20;;;7.20;67.20;;;;;;2261319;55;21105;-69
2020/12/30 05:33:15;;;;;;;4.87;1.87;;;7.20;67.20;;;;;;2255173;56;21016;-69
2020/12/30 05:35:41;;;;;;;4.00;1.60;;;7.20;67.20;;;;;;2488574;55;20957;-69
2020/12/30 05:38:10;;;;;;;4.37;1.70;;;7.10;67.10;;;;;;2485669;55;21627;-69
2020/12/30 05:40:37;;;;;;;2.75;1.20;;;7.10;67.20;;;;;;2472061;55;21380;-69
2020/12/30 05:43:36;;;;;;;4.82;1.40;;;7.10;67.40;;;;;;2251527;55;20996;-69
2020/12/30 05:46:03;;;;;;;3.15;1.10;;;7.00;67.00;;;;;;2264367;55;20988;-69
2020/12/30 05:48:33;;;;;;;2.22;0.77;;;7.00;67.50;;;;;;2482073;55;20980;-69
2020/12/30 05:50:59;;;;;;;3.58;1.37;;;7.00;67.70;;;;;;2488054;55;21528;-69
2020/12/30 05:53:26;;;;;;;4.60;1.80;;;6.90;67.90;;;;;;2489863;55;21975;-69
2020/12/30 05:56:06;;;;;;;6.93;1.65;;;6.90;68.00;;;;;;2481968;55;21016;-69
2020/12/30 05:58:36;;;;;;;2.78;0.90;;;6.90;68.20;;;;;;2260213;56;20968;-69
2020/12/30 06:01:21;;;;;;;3.70;0.70;;;6.90;68.50;;;;;;2266843;55;21469;-69
2020/12/30 06:03:48;;;;;;;2.70;0.77;;;7.00;68.80;;;;;;2252861;55;21458;-69
2020/12/30 06:06:15;;;;;;;2.85;0.50;;;7.00;69.00;;;;;;2262536;55;21097;-69
2020/12/30 06:08:42;;;;;;;2.40;0.70;;;7.00;69.10;;;;;;2475908;55;20996;-70
2020/12/30 06:11:08;;;;;;;1.35;0.50;;;7.10;69.30;;;;;;2487542;55;21000;-69
2020/12/30 06:13:35;;;;;;;4.20;0.60;;;7.10;69.40;;;;;;2488635;55;21032;-69
2020/12/30 06:16:01;;;;;;;1.23;0.50;;;7.10;69.50;;;;;;2487954;55;20988;-69
2020/12/30 06:18:28;;;;;;;3.72;0.70;;;7.20;69.60;;;;;;2269851;55;21054;-69
2020/12/30 06:20:54;;;;;;;2.80;0.82;;;7.20;69.60;;;;;;2248915;56;21049;-70
2020/12/30 06:23:22;;;;;;;5.18;0.98;;;7.30;69.70;;;;;;2263358;55;20972;-69
2020/12/30 06:25:48;;;;;;;2.87;0.80;;;7.30;69.70;;;;;;2266451;55;21022;-69
2020/12/30 06:28:24;;;;;;;1.95;0.50;;;7.30;69.60;;;;;;2256938;56;21000;-70
2020/12/30 06:30:53;;;;;;;2.58;0.50;;;7.40;69.50;;;;;;2487252;55;21060;-69
2020/12/30 06:33:22;;;;;;;2.92;0.70;;;7.40;70.30;;;;;;2487903;55;21000;-70
2020/12/30 06:35:54;;;;;;;1.70;0.50;;;7.40;69.50;;;;;;2266939;55;20992;-70
2020/12/30 06:38:27;;;;;;;1.30;0.47;;;7.40;69.40;;;;;;2468112;55;21052;-69
2020/12/30 06:41:02;;;;;;;1.25;0.45;;;7.50;69.60;;;;;;2487234;55;21335;-69
2020/12/30 06:44:39;;;;;;;4.87;0.50;;;7.50;69.60;;;;;;2261631;55;21932;-69
2020/12/30 06:47:10;;;;;;;1.77;0.80;;;7.50;68.90;;;;;;2260460;56;21081;-69
2020/12/30 06:49:37;;;;;;;2.60;0.70;;;7.60;69.60;;;;;;2262887;55;20973;-70
2020/12/30 06:52:26;;;;;;;2.15;0.60;;;7.60;69.60;;;;;;2488854;55;21430;-69
2020/12/30 06:54:52;;;;;;;3.33;0.70;;;7.60;69.30;;;;;;2264441;55;21029;-70
2020/12/30 06:57:40;;;;;;;1.25;0.50;;;7.60;69.50;;;;;;2258961;55;21738;-70
2020/12/30 07:02:07;;;;;;;1.42;0.50;;;7.60;69.10;;;;;;2259047;56;21075;-69
2020/12/30 07:04:36;;;;;;;2.92;0.60;;;7.70;68.70;;;;;;2242964;57;21286;-69
2020/12/30 07:07:19;;;;;;;2.00;0.60;;;7.70;69.40;;;;;;2241967;56;21122;-69
2020/12/30 07:09:45;;;;;;;1.83;0.60;;;7.70;69.10;;;;;;2488042;55;20980;-70
2020/12/30 07:12:14;;;;;;;3.00;0.80;;;7.70;69.10;;;;;;2258993;56;21826;-71
2020/12/30 07:14:40;;;;;;;3.42;0.70;;;7.70;69.30;;;;;;2262963;56;22044;-69
2020/12/30 07:17:07;;;;;;;3.97;0.60;;;7.70;69.40;;;;;;2261894;56;21024;-70
2020/12/30 07:19:35;;;;;;;1.87;0.50;;;7.70;69.50;;;;;;2476566;55;21076;-69
2020/12/30 07:22:08;;;;;;;1.52;0.50;;;7.70;69.50;;;;;;2477190;55;20960;-71
2020/12/30 07:24:53;;;;;;;2.05;0.68;;;7.70;69.30;;;;;;2208668;57;21598;-71
2020/12/30 07:27:27;;;;;;;1.40;0.47;;;7.70;68.90;;;;;;2234216;56;21067;-71
2020/12/30 07:29:53;;;;;;;2.20;0.70;;;7.70;69.30;;;;;;2466636;55;20993;-71
2020/12/30 07:32:21;;;;;;;4.03;0.60;;;7.70;69.20;;;;;;2262613;55;21004;-70
2020/12/30 07:34:52;;;;;;;2.67;0.90;;;7.70;69.30;;;;;;2254779;56;20941;-71
2020/12/30 07:37:18;;;;;;;4.18;1.05;;;7.80;69.40;;;;;;2254918;56;21005;-70
2020/12/30 07:39:46;;;;;;;2.17;0.90;;;7.80;69.20;;;;;;2477054;55;20984;-70
2020/12/30 07:42:27;;;;;;;3.25;0.80;;;7.80;69.10;;;;;;2262916;55;21025;-71
2020/12/30 07:44:57;;;;;;;3.08;0.60;;;7.80;69.00;;;;;;2259614;56;20989;-71
2020/12/30 07:47:25;;;;;;;1.70;0.60;;;7.80;69.10;;;;;;2262525;56;21080;-69
2020/12/30 07:49:58;;;;;;;2.83;0.57;;;7.80;69.20;;;;;;2486961;55;21004;-71
2020/12/30 07:52:26;;;;;;;2.78;0.62;;;7.80;69.20;;;;;;2488749;55;21058;-70
2020/12/30 07:54:54;;;;;;;2.58;0.80;;;7.90;69.30;;;;;;2236932;56;21103;-70
2020/12/30 07:57:22;;;;;;;2.72;0.93;;;7.90;69.40;;;;;;2260242;56;21052;-70
2020/12/30 07:59:51;;;;;;;2.10;0.80;;;7.90;69.40;;;;;;2259910;56;21056;-71
2020/12/30 08:02:17;;;;;;;3.92;1.42;;;7.90;69.40;;;;;;2259795;56;21411;-71
2020/12/30 08:04:58;;;;;;;8.93;3.10;;;7.90;69.60;;;;;;2263707;55;20941;-71
2020/12/30 08:07:25;;;;;;;6.18;2.65;;;8.00;69.50;;;;;;2488130;55;21056;-71
2020/12/30 08:09:56;;;;;;;4.28;1.48;;;8.00;69.40;;;;;;2259483;55;20993;-71
2020/12/30 08:12:23;;;;;;;4.05;1.25;;;8.00;68.90;;;;;;2260512;56;21954;-71
2020/12/30 08:14:51;;;;;;;3.60;1.25;;;8.10;69.30;;;;;;2260444;56;20969;-70
2020/12/30 08:17:19;;;;;;;2.37;0.90;;;8.10;69.30;;;;;;2259821;56;20988;-71
2020/12/30 08:19:50;;;;;;;3.72;0.85;;;8.10;69.30;;;;;;2259119;56;21105;-70
2020/12/30 08:22:27;;;;;;;1.83;0.70;;;8.20;69.30;;;;;;2269918;55;20965;-71
2020/12/30 08:24:54;;;;;;;3.92;0.80;;;8.20;69.30;;;;;;2473971;55;20977;-71
2020/12/30 08:27:31;;;;;;;2.22;0.88;;;8.20;69.40;;;;;;2487917;55;21064;-71
2020/12/30 08:29:58;;;;;;;2.83;1.17;;;8.30;69.40;;;;;;2485431;55;21052;-71
2020/12/30 08:33:25;;;;;;;2.92;0.90;;;8.30;69.70;;;;;;2464424;55;21751;-71
2020/12/30 08:35:57;;;;;;;4.00;1.00;;;8.40;68.50;;;;;;2260092;56;20952;-71
2020/12/30 08:38:24;;;;;;;3.35;0.93;;;8.40;69.40;;;;;;2487624;55;20964;-71
2020/12/30 08:40:54;;;;;;;2.92;0.60;;;8.40;69.50;;;;;;2259757;55;21040;-71
2020/12/30 08:43:43;;;;;;;4.55;0.90;;;8.50;69.60;;;;;;2260342;56;20988;-70
2020/12/30 08:46:25;;;;;;;2.47;0.82;;;8.50;69.30;;;;;;2262947;55;21518;-71
2020/12/30 08:48:52;;;;;;;3.83;1.10;;;8.60;69.50;;;;;;2259152;56;21073;-71
2020/12/30 08:51:31;;;;;;;2.53;1.00;;;8.60;69.00;;;;;;2258102;56;21056;-71
2020/12/30 08:54:00;;;;;;;2.58;1.08;;;8.60;69.20;;;;;;2489644;55;20944;-71
2020/12/30 08:56:27;;;;;;;45.22;13.13;;;8.70;69.30;;;;;;2260480;56;21011;-71
2020/12/30 08:58:55;;;;;;;18.50;7.15;;;8.70;69.30;;;;;;2267979;55;21501;-71
2020/12/30 09:01:28;;;;;;;9.68;3.28;;;8.70;69.40;;;;;;2263680;55;20973;-70
2020/12/30 09:04:08;;;;;;;5.43;1.92;;;8.80;69.10;;;;;;2258211;56;21020;-71
2020/12/30 09:06:35;;;;;;;3.75;1.10;;;8.80;68.70;;;;;;2242302;56;20954;-71
2020/12/30 09:09:08;;;;;;;2.55;0.90;;;8.80;68.10;;;;;;2488909;55;21033;-71
2020/12/30 09:11:44;;;;;;;4.05;1.20;;;8.80;68.00;;;;;;2262550;56;20965;-71
2020/12/30 09:14:21;;;;;;;3.05;0.70;;;8.80;67.80;;;;;;2487655;55;21468;-70
2020/12/30 09:17:11;;;;;;;3.10;0.80;;;8.80;67.80;;;;;;2260432;56;21072;-71
2020/12/30 09:19:37;;;;;;;3.75;1.10;;;8.80;67.90;;;;;;2244690;56;21500;-71
2020/12/30 09:22:11;;;;;;;3.42;1.00;;;8.70;68.00;;;;;;2262987;56;20937;-71
2020/12/30 09:24:38;;;;;;;2.72;0.70;;;8.70;67.90;;;;;;2488231;55;21886;-71
2020/12/30 09:27:22;;;;;;;2.95;0.80;;;8.70;68.20;;;;;;2260120;56;21048;-71
2020/12/30 09:30:07;;;;;;;;;;;8.70;68.00;;;;;;2266594;56;21080;-71
2020/12/30 09:32:34;;;;;;;2.47;0.80;;;8.80;67.40;;;;;;2262872;56;20073;-70
2020/12/30 09:35:05;;;;;;;2.78;1.00;;;8.80;68.40;;;;;;2486713;55;21432;-70
2020/12/30 09:37:32;;;;;;;1.73;0.80;;;8.80;68.30;;;;;;2257726;56;21510;-70
2020/12/30 09:40:12;;;;;;;1.95;0.75;;;8.80;68.00;;;;;;2486891;55;21080;-71
2020/12/30 09:42:39;;;;;;;2.50;1.10;;;8.80;68.20;;;;;;2245865;56;20970;-71
2020/12/30 09:45:08;;;;;;;3.03;1.10;;;8.80;68.60;;;;;;2253997;56;21063;-71
2020/12/30 09:47:38;;;;;;;3.30;1.10;;;8.80;68.70;;;;;;2259432;56;20937;-71
2020/12/30 09:50:06;;;;;;;3.20;1.35;;;8.80;69.40;;;;;;2483304;55;20956;-71
2020/12/30 09:52:37;;;;;;;5.80;1.40;;;8.90;69.20;;;;;;2483549;55;21543;-71
2020/12/30 09:55:04;;;;;;;3.28;1.27;;;8.90;69.30;;;;;;2484200;55;21033;-71
2020/12/30 09:57:31;;;;;;;3.15;1.20;;;8.90;69.50;;;;;;2463557;55;20957;-71
2020/12/30 09:59:59;;;;;;;3.30;1.17;;;9.00;69.40;;;;;;2255117;55;20941;-71
2020/12/30 10:02:27;;;;;;;4.80;1.02;;;9.00;69.50;;;;;;2484837;55;21120;-70
2020/12/30 10:04:54;;;;;;;2.78;1.10;;;9.10;69.60;;;;;;2484520;55;21045;-71
2020/12/30 10:07:20;;;;;;;2.12;0.93;;;9.10;69.60;;;;;;2257516;56;21859;-71
2020/12/30 10:09:49;;;;;;;3.42;1.67;;;9.20;69.70;;;;;;2357618;56;1353678;-70
2020/12/30 10:12:24;;;;;;;3.22;1.10;;;9.20;69.80;;;;;;2232350;57;21006;-71
2020/12/30 10:14:52;;;;;;;2.70;1.23;;;9.30;69.50;;;;;;2449972;55;20987;-71
2020/12/30 10:17:18;;;;;;;3.25;1.33;;;9.30;69.50;;;;;;2232959;57;20987;-71
2020/12/30 10:19:45;;;;;;;3.75;1.73;;;9.30;69.20;;;;;;2456011;55;20971;-71
2020/12/30 10:22:12;;;;;;;5.95;2.67;;;9.40;69.30;;;;;;2455305;56;20947;-71
2020/12/30 10:24:45;;;;;;;5.95;1.95;;;9.40;69.10;;;;;;2455252;56;21978;-71
2020/12/30 10:27:11;;;;;;;4.40;2.00;;;9.40;68.90;;;;;;2232215;56;21035;-71
2020/12/30 10:29:38;;;;;;;4.25;1.92;;;9.40;69.00;;;;;;2454528;55;21070;-71
2020/12/30 10:32:13;;;;;;;4.78;2.35;;;9.40;68.80;;;;;;2455271;56;21559;-71
2020/12/30 10:34:39;;;;;;;6.60;3.42;;;9.40;68.80;;;;;;2466281;55;20912;-71
2020/12/30 10:37:06;;;;;;;7.35;3.92;;;9.40;68.40;;;;;;2252207;56;21505;-71
2020/12/30 10:39:33;;;;;;;7.25;3.12;;;9.30;68.10;;;;;;2252491;57;20989;-71
2020/12/30 10:42:00;;;;;;;6.25;3.10;;;9.30;68.20;;;;;;2480418;55;21013;-71
2020/12/30 10:44:27;;;;;;;5.57;2.60;;;9.30;67.90;;;;;;2472942;55;20989;-71
2020/12/30 10:46:53;;;;;;;3.37;1.73;;;9.30;67.90;;;;;;2481207;55;20957;-70
2020/12/30 10:49:21;;;;;;;3.35;1.33;;;9.20;68.00;;;;;;2483570;55;21016;-70
2020/12/30 10:51:49;;;;;;;2.70;1.20;;;9.20;67.90;;;;;;2475825;55;21041;-71
2020/12/30 10:54:16;;;;;;;3.05;1.20;;;9.20;68.20;;;;;;2482869;55;20965;-70
2020/12/30 10:56:52;;;;;;;2.08;0.95;;;9.20;68.10;;;;;;2239397;56;21000;-71
2020/12/30 10:59:19;;;;;;;3.28;1.10;;;9.20;67.80;;;;;;2482306;55;21024;-71
2020/12/30 11:01:52;;;;;;;2.78;1.20;;;9.10;67.70;;;;;;2483057;55;21060;-71
2020/12/30 11:04:18;;;;;;;2.30;1.12;;;9.10;67.60;;;;;;2258970;56;21842;-71
2020/12/30 11:06:45;;;;;;;2.95;1.10;;;9.10;67.80;;;;;;2255119;56;21013;-70
2020/12/30 11:09:12;;;;;;;2.60;1.00;;;9.10;68.20;;;;;;2482595;55;21033;-71
2020/12/30 11:11:40;;;;;;;2.62;1.10;;;9.10;68.10;;;;;;2238877;56;21414;-70
2020/12/30 11:14:07;;;;;;;2.28;1.00;;;9.10;67.90;;;;;;2482643;55;21028;-70
2020/12/30 11:16:34;;;;;;;2.25;1.00;;;9.10;68.10;;;;;;2258231;56;20965;-71
2020/12/30 11:19:00;;;;;;;2.95;1.17;;;9.10;68.20;;;;;;2261314;56;20961;-71
2020/12/30 11:21:27;;;;;;;3.33;1.20;;;9.10;68.00;;;;;;2264636;56;21001;-71
2020/12/30 11:23:54;;;;;;;3.67;1.23;;;9.10;67.90;;;;;;2476465;55;20968;-71
2020/12/30 11:26:20;;;;;;;2.50;1.00;;;9.00;67.80;;;;;;2257203;56;21786;-71
2020/12/30 11:28:49;;;;;;;2.00;0.95;;;9.10;68.10;;;;;;2482037;55;21000;-71
2020/12/30 11:31:16;;;;;;;2.20;1.10;;;9.00;68.00;;;;;;2262213;56;21539;-70
2020/12/30 11:33:43;;;;;;;3.03;1.17;;;9.00;68.00;;;;;;2244920;56;21003;-70
2020/12/30 11:36:12;;;;;;;2.92;1.20;;;9.00;68.20;;;;;;2256065;57;21104;-70
2020/12/30 11:38:39;;;;;;;4.07;1.05;;;9.00;68.00;;;;;;2457062;55;21533;-70
2020/12/30 11:41:06;;;;;;;2.87;1.25;;;9.10;68.90;;;;;;2255067;56;20948;-70
2020/12/30 11:43:33;;;;;;;2.40;0.93;;;9.00;68.10;;;;;;2482075;55;21462;-71
2020/12/30 11:46:00;;;;;;;2.55;1.02;;;9.00;68.30;;;;;;2253727;56;21578;-71
2020/12/30 11:48:30;;;;;;;2.12;0.90;;;9.00;68.50;;;;;;2482277;55;20933;-71
2020/12/30 11:50:58;;;;;;;3.22;1.45;;;9.00;68.80;;;;;;2261462;56;21030;-71
2020/12/30 11:53:24;;;;;;;3.05;1.52;;;9.00;68.70;;;;;;2248857;56;21537;-70
2020/12/30 11:55:52;;;;;;;2.75;1.33;;;9.10;68.80;;;;;;2255438;57;21833;-71
2020/12/30 11:58:19;;;;;;;3.62;1.30;;;9.10;68.40;;;;;;2249924;56;20988;-71
2020/12/30 12:00:46;;;;;;;5.95;1.55;;;9.10;68.50;;;;;;2262942;56;21014;-70
2020/12/30 12:03:13;;;;;;;3.80;1.55;;;9.10;68.50;;;;;;2446331;55;20941;-71
2020/12/30 12:05:39;;;;;;;4.00;1.70;;;9.10;68.20;;;;;;2460104;55;21052;-71
2020/12/30 12:08:06;;;;;;;3.92;1.40;;;9.10;67.80;;;;;;2480785;55;20953;-70
2020/12/30 12:10:33;;;;;;;3.12;1.55;;;9.10;68.00;;;;;;2255203;56;20957;-71
2020/12/30 12:13:00;;;;;;;3.28;1.40;;;9.10;68.10;;;;;;2483551;55;21601;-71
2020/12/30 12:15:27;;;;;;;4.97;1.60;;;9.10;68.80;;;;;;2254247;56;21004;-71
2020/12/30 12:17:56;;;;;;;3.85;1.95;;;9.10;68.20;;;;;;2258143;56;20986;-70
2020/12/30 12:20:23;;;;;;;3.80;1.95;;;9.10;68.00;;;;;;2246307;56;21558;-71
2020/12/30 12:22:51;;;;;;;3.75;1.62;;;9.10;68.00;;;;;;2472275;55;20954;-71
2020/12/30 12:25:17;;;;;;;4.05;1.92;;;9.10;68.20;;;;;;2475349;55;21005;-71
2020/12/30 12:27:44;;;;;;;4.28;1.62;;;9.10;68.10;;;;;;2481967;55;21749;-71
2020/12/30 12:30:11;;;;;;;3.83;1.85;;;9.10;68.30;;;;;;2254718;57;21003;-70
2020/12/30 12:32:38;;;;;;;4.35;2.05;;;9.10;68.20;;;;;;2483001;55;21669;-71
2020/12/30 12:35:04;;;;;;;4.82;1.62;;;9.10;68.20;;;;;;2254505;56;21069;-71
2020/12/30 12:37:31;;;;;;;3.90;1.77;;;9.10;68.20;;;;;;2479746;55;21351;-71
2020/12/30 12:39:58;;;;;;;3.60;1.52;;;9.10;68.20;;;;;;2257902;56;21956;-71
2020/12/30 12:42:24;;;;;;;3.87;1.92;;;9.20;68.50;;;;;;2482941;55;20965;-71
2020/12/30 12:44:51;;;;;;;4.30;1.80;;;9.20;68.50;;;;;;2258792;56;21468;-71
2020/12/30 12:47:19;;;;;;;3.92;1.55;;;9.20;68.50;;;;;;2458726;55;20898;-71
2020/12/30 12:49:49;;;;;;;4.07;1.95;;;9.20;68.70;;;;;;2259001;56;21073;-71
2020/12/30 12:52:16;;;;;;;3.60;1.67;;;9.20;68.70;;;;;;2247879;56;21053;-71
2020/12/30 12:54:43;;;;;;;4.60;1.90;;;9.20;68.60;;;;;;2476072;55;21032;-71
2020/12/30 12:57:11;;;;;;;3.30;1.50;;;9.30;68.90;;;;;;2259995;56;21040;-71
2020/12/30 12:59:37;;;;;;;4.53;1.90;;;9.30;69.00;;;;;;2246429;56;21489;-71
2020/12/30 13:02:05;;;;;;;3.75;1.75;;;9.30;68.80;;;;;;2473244;55;21845;-71
2020/12/30 13:04:35;;;;;;;3.22;1.62;;;9.30;68.80;;;;;;2255201;56;21028;-71
2020/12/30 13:07:01;;;;;;;3.62;1.90;;;9.40;69.00;;;;;;2482606;55;21020;-70
2020/12/30 13:09:30;;;;;;;3.35;1.60;;;9.40;69.20;;;;;;2253294;56;21505;-70